sensor_id;sensor_type;location;lat;lon;timestamp;P1;durP1;ratioP1;P2;durP2;ratioP2
60612;SDS011;46443;59.792;17.626;2023-09-18T00:01:52;5.90;;;1.60;;
60612;SDS011;46443;59.792;17.626;2023-09-18T00:04:18;2.73;;;1.40;;
60612;SDS011;46443;59.792;17.626;2023-09-18T00:06:44;2.57;;;1.40;;
60612;SDS011;46443;59.792;17.626;2023-09-18T00:09:10;3.33;;;1.50;;
60612;SDS011;46443;59.792;17.626;2023-09-18T00:11:39;1.20;;;1.10;;
60612;SDS011;46443;59.792;17.626;2023-09-18T00:14:05;2.23;;;1.40;;
60612;SDS011;46443;59.792;17.626;2023-09-18T00:16:31;5.90;;;1.40;;
60612;SDS011;46443;59.792;17.626;2023-09-18T00:18:58;3.13;;;1.30;;
60612;SDS011;46443;59.792;17.626;2023-09-18T00:21:24;1.63;;;1.20;;
60612;SDS011;46443;59.792;17.626;2023-09-18T00:23:51;2.13;;;1.23;;
60612;SDS011;46443;59.792;17.626;2023-09-18T00:26:17;1.97;;;1.40;;
60612;SDS011;46443;59.792;17.626;2023-09-18T00:28:43;3.23;;;1.30;;
60612;SDS011;46443;59.792;17.626;2023-09-18T00:31:09;2.07;;;1.20;;
60612;SDS011;46443;59.792;17.626;2023-09-18T00:33:35;3.10;;;1.40;;
60612;SDS011;46443;59.792;17.626;2023-09-18T00:36:02;2.00;;;1.27;;
60612;SDS011;46443;59.792;17.626;2023-09-18T00:38:28;1.70;;;1.10;;
60612;SDS011;46443;59.792;17.626;2023-09-18T00:40:54;1.53;;;1.10;;
60612;SDS011;46443;59.792;17.626;2023-09-18T00:43:20;1.80;;;1.17;;
60612;SDS011;46443;59.792;17.626;2023-09-18T00:45:47;3.03;;;1.33;;
60612;SDS011;46443;59.792;17.626;2023-09-18T00:48:14;3.80;;;1.57;;
60612;SDS011;46443;59.792;17.626;2023-09-18T00:50:41;4.97;;;1.37;;
60612;SDS011;46443;59.792;17.626;2023-09-18T00:53:08;1.80;;;1.10;;
60612;SDS011;46443;59.792;17.626;2023-09-18T00:55:34;2.13;;;1.10;;
60612;SDS011;46443;59.792;17.626;2023-09-18T00:58:02;2.67;;;1.30;;
60612;SDS011;46443;59.792;17.626;2023-09-18T01:00:28;2.80;;;1.40;;
60612;SDS011;46443;59.792;17.626;2023-09-18T01:02:54;2.07;;;1.23;;
60612;SDS011;46443;59.792;17.626;2023-09-18T01:05:21;2.30;;;1.20;;
60612;SDS011;46443;59.792;17.626;2023-09-18T01:07:47;2.33;;;1.20;;
60612;SDS011;46443;59.792;17.626;2023-09-18T01:10:13;1.87;;;1.10;;
60612;SDS011;46443;59.792;17.626;2023-09-18T01:17:37;1.20;;;1.10;;
60612;SDS011;46443;59.792;17.626;2023-09-18T01:20:04;2.17;;;1.20;;
60612;SDS011;46443;59.792;17.626;2023-09-18T01:22:31;1.87;;;1.17;;
60612;SDS011;46443;59.792;17.626;2023-09-18T01:24:57;3.27;;;1.30;;
60612;SDS011;46443;59.792;17.626;2023-09-18T01:27:23;2.73;;;1.27;;
60612;SDS011;46443;59.792;17.626;2023-09-18T01:29:49;2.00;;;1.30;;
60612;SDS011;46443;59.792;17.626;2023-09-18T01:32:16;3.00;;;1.30;;
60612;SDS011;46443;59.792;17.626;2023-09-18T01:34:46;2.90;;;1.20;;
60612;SDS011;46443;59.792;17.626;2023-09-18T01:37:14;2.27;;;1.30;;
60612;SDS011;46443;59.792;17.626;2023-09-18T01:39:41;2.47;;;1.23;;
60612;SDS011;46443;59.792;17.626;2023-09-18T01:42:07;1.97;;;1.10;;
60612;SDS011;46443;59.792;17.626;2023-09-18T01:44:36;4.57;;;1.25;;
60612;SDS011;46443;59.792;17.626;2023-09-18T01:47:08;2.13;;;1.75;;
60612;SDS011;46443;59.792;17.626;2023-09-18T01:49:35;1.30;;;1.20;;
60612;SDS011;46443;59.792;17.626;2023-09-18T01:52:02;2.50;;;1.40;;
60612;SDS011;46443;59.792;17.626;2023-09-18T01:54:28;1.97;;;1.40;;
60612;SDS011;46443;59.792;17.626;2023-09-18T01:56:55;2.77;;;1.37;;
60612;SDS011;46443;59.792;17.626;2023-09-18T01:59:21;1.60;;;1.20;;
60612;SDS011;46443;59.792;17.626;2023-09-18T02:01:48;2.50;;;1.30;;
60612;SDS011;46443;59.792;17.626;2023-09-18T02:04:14;2.00;;;1.20;;
60612;SDS011;46443;59.792;17.626;2023-09-18T02:06:40;2.67;;;1.10;;
60612;SDS011;46443;59.792;17.626;2023-09-18T02:09:07;0.97;;;0.90;;
60612;SDS011;46443;59.792;17.626;2023-09-18T02:11:37;1.63;;;1.20;;
60612;SDS011;46443;59.792;17.626;2023-09-18T02:14:03;3.93;;;1.37;;
60612;SDS011;46443;59.792;17.626;2023-09-18T02:16:32;2.73;;;1.20;;
60612;SDS011;46443;59.792;17.626;2023-09-18T02:18:58;2.17;;;1.10;;
60612;SDS011;46443;59.792;17.626;2023-09-18T02:21:24;1.93;;;1.10;;
60612;SDS011;46443;59.792;17.626;2023-09-18T02:23:51;4.90;;;1.53;;
60612;SDS011;46443;59.792;17.626;2023-09-18T02:26:17;2.83;;;1.10;;
60612;SDS011;46443;59.792;17.626;2023-09-18T02:28:44;2.30;;;1.30;;
60612;SDS011;46443;59.792;17.626;2023-09-18T02:31:10;2.57;;;1.10;;
60612;SDS011;46443;59.792;17.626;2023-09-18T02:33:36;2.27;;;1.20;;
60612;SDS011;46443;59.792;17.626;2023-09-18T02:36:02;4.10;;;1.30;;
60612;SDS011;46443;59.792;17.626;2023-09-18T02:38:29;3.73;;;1.10;;
60612;SDS011;46443;59.792;17.626;2023-09-18T02:40:55;1.67;;;1.17;;
60612;SDS011;46443;59.792;17.626;2023-09-18T02:43:22;4.83;;;1.73;;
60612;SDS011;46443;59.792;17.626;2023-09-18T02:45:48;3.07;;;1.20;;
60612;SDS011;46443;59.792;17.626;2023-09-18T02:48:15;1.57;;;1.17;;
60612;SDS011;46443;59.792;17.626;2023-09-18T02:50:41;3.27;;;1.57;;
60612;SDS011;46443;59.792;17.626;2023-09-18T02:53:07;2.80;;;1.40;;
60612;SDS011;46443;59.792;17.626;2023-09-18T02:55:37;2.20;;;1.25;;
60612;SDS011;46443;59.792;17.626;2023-09-18T02:58:03;4.97;;;1.43;;
60612;SDS011;46443;59.792;17.626;2023-09-18T03:00:29;2.90;;;1.20;;
60612;SDS011;46443;59.792;17.626;2023-09-18T03:02:55;1.93;;;1.00;;
60612;SDS011;46443;59.792;17.626;2023-09-18T03:05:21;1.40;;;1.10;;
60612;SDS011;46443;59.792;17.626;2023-09-18T03:07:47;2.37;;;1.60;;
60612;SDS011;46443;59.792;17.626;2023-09-18T03:10:13;2.63;;;1.37;;
60612;SDS011;46443;59.792;17.626;2023-09-18T03:12:41;2.90;;;1.57;;
60612;SDS011;46443;59.792;17.626;2023-09-18T03:15:07;3.73;;;1.47;;
60612;SDS011;46443;59.792;17.626;2023-09-18T03:17:33;1.53;;;1.30;;
60612;SDS011;46443;59.792;17.626;2023-09-18T03:19:59;2.13;;;1.40;;
60612;SDS011;46443;59.792;17.626;2023-09-18T03:22:25;3.47;;;1.50;;
60612;SDS011;46443;59.792;17.626;2023-09-18T03:24:51;3.07;;;1.50;;
60612;SDS011;46443;59.792;17.626;2023-09-18T03:27:17;3.17;;;1.60;;
60612;SDS011;46443;59.792;17.626;2023-09-18T03:29:43;2.93;;;1.60;;
60612;SDS011;46443;59.792;17.626;2023-09-18T03:32:09;3.13;;;1.67;;
60612;SDS011;46443;59.792;17.626;2023-09-18T03:34:37;3.43;;;1.80;;
60612;SDS011;46443;59.792;17.626;2023-09-18T03:37:03;3.23;;;1.50;;
60612;SDS011;46443;59.792;17.626;2023-09-18T03:39:29;3.63;;;1.80;;
60612;SDS011;46443;59.792;17.626;2023-09-18T03:41:55;2.37;;;1.40;;
60612;SDS011;46443;59.792;17.626;2023-09-18T03:44:21;1.43;;;1.10;;
60612;SDS011;46443;59.792;17.626;2023-09-18T03:46:48;2.27;;;1.33;;
60612;SDS011;46443;59.792;17.626;2023-09-18T03:49:14;2.97;;;1.20;;
60612;SDS011;46443;59.792;17.626;2023-09-18T03:51:40;2.47;;;1.17;;
60612;SDS011;46443;59.792;17.626;2023-09-18T03:54:06;3.10;;;1.40;;
60612;SDS011;46443;59.792;17.626;2023-09-18T03:56:32;3.70;;;1.40;;
60612;SDS011;46443;59.792;17.626;2023-09-18T03:58:58;3.30;;;1.50;;
60612;SDS011;46443;59.792;17.626;2023-09-18T04:01:26;2.50;;;1.30;;
60612;SDS011;46443;59.792;17.626;2023-09-18T04:03:52;2.20;;;1.20;;
60612;SDS011;46443;59.792;17.626;2023-09-18T04:06:20;1.67;;;1.20;;
60612;SDS011;46443;59.792;17.626;2023-09-18T04:08:46;2.50;;;1.47;;
60612;SDS011;46443;59.792;17.626;2023-09-18T04:11:12;2.13;;;1.30;;
60612;SDS011;46443;59.792;17.626;2023-09-18T04:13:38;3.53;;;1.60;;
60612;SDS011;46443;59.792;17.626;2023-09-18T04:16:04;2.87;;;1.33;;
60612;SDS011;46443;59.792;17.626;2023-09-18T04:18:31;3.57;;;1.30;;
60612;SDS011;46443;59.792;17.626;2023-09-18T04:20:57;1.93;;;1.40;;
60612;SDS011;46443;59.792;17.626;2023-09-18T04:23:24;2.43;;;1.50;;
60612;SDS011;46443;59.792;17.626;2023-09-18T04:25:51;2.70;;;1.53;;
60612;SDS011;46443;59.792;17.626;2023-09-18T04:28:17;2.70;;;1.60;;
60612;SDS011;46443;59.792;17.626;2023-09-18T04:30:44;3.47;;;1.70;;
60612;SDS011;46443;59.792;17.626;2023-09-18T04:33:10;4.07;;;1.80;;
60612;SDS011;46443;59.792;17.626;2023-09-18T04:35:37;2.97;;;1.73;;
60612;SDS011;46443;59.792;17.626;2023-09-18T04:38:07;3.55;;;1.67;;
60612;SDS011;46443;59.792;17.626;2023-09-18T04:40:33;2.90;;;1.70;;
60612;SDS011;46443;59.792;17.626;2023-09-18T04:43:00;4.00;;;1.60;;
60612;SDS011;46443;59.792;17.626;2023-09-18T04:45:26;2.97;;;1.60;;
60612;SDS011;46443;59.792;17.626;2023-09-18T04:47:52;3.47;;;1.80;;
60612;SDS011;46443;59.792;17.626;2023-09-18T04:50:19;3.57;;;1.83;;
60612;SDS011;46443;59.792;17.626;2023-09-18T04:52:45;4.57;;;1.80;;
60612;SDS011;46443;59.792;17.626;2023-09-18T04:55:12;4.30;;;1.97;;
60612;SDS011;46443;59.792;17.626;2023-09-18T04:57:39;2.80;;;1.60;;
60612;SDS011;46443;59.792;17.626;2023-09-18T05:00:05;2.13;;;1.57;;
60612;SDS011;46443;59.792;17.626;2023-09-18T05:02:37;3.13;;;1.70;;
60612;SDS011;46443;59.792;17.626;2023-09-18T05:05:03;3.93;;;2.00;;
60612;SDS011;46443;59.792;17.626;2023-09-18T05:07:30;1.93;;;1.60;;
60612;SDS011;46443;59.792;17.626;2023-09-18T05:09:57;3.23;;;1.60;;
60612;SDS011;46443;59.792;17.626;2023-09-18T05:12:23;2.57;;;2.00;;
60612;SDS011;46443;59.792;17.626;2023-09-18T05:14:50;7.40;;;1.80;;
60612;SDS011;46443;59.792;17.626;2023-09-18T05:17:16;3.27;;;1.60;;
60612;SDS011;46443;59.792;17.626;2023-09-18T05:19:43;3.83;;;1.97;;
60612;SDS011;46443;59.792;17.626;2023-09-18T05:22:09;3.20;;;1.60;;
60612;SDS011;46443;59.792;17.626;2023-09-18T05:24:38;4.17;;;2.07;;
60612;SDS011;46443;59.792;17.626;2023-09-18T05:27:04;1.70;;;1.40;;
60612;SDS011;46443;59.792;17.626;2023-09-18T05:29:32;2.17;;;1.47;;
60612;SDS011;46443;59.792;17.626;2023-09-18T05:31:58;4.00;;;1.50;;
60612;SDS011;46443;59.792;17.626;2023-09-18T05:34:24;4.10;;;1.83;;
60612;SDS011;46443;59.792;17.626;2023-09-18T05:36:50;2.33;;;1.40;;
60612;SDS011;46443;59.792;17.626;2023-09-18T05:39:17;2.60;;;1.50;;
60612;SDS011;46443;59.792;17.626;2023-09-18T05:41:43;2.20;;;1.50;;
60612;SDS011;46443;59.792;17.626;2023-09-18T05:44:09;3.37;;;1.50;;
60612;SDS011;46443;59.792;17.626;2023-09-18T05:46:35;2.73;;;1.60;;
60612;SDS011;46443;59.792;17.626;2023-09-18T05:49:02;2.03;;;1.47;;
60612;SDS011;46443;59.792;17.626;2023-09-18T05:51:29;2.50;;;1.63;;
60612;SDS011;46443;59.792;17.626;2023-09-18T05:53:55;2.33;;;1.53;;
60612;SDS011;46443;59.792;17.626;2023-09-18T05:56:21;2.57;;;1.43;;
60612;SDS011;46443;59.792;17.626;2023-09-18T05:58:49;3.00;;;1.60;;
60612;SDS011;46443;59.792;17.626;2023-09-18T06:01:15;2.23;;;1.50;;
60612;SDS011;46443;59.792;17.626;2023-09-18T06:03:41;2.80;;;1.43;;
60612;SDS011;46443;59.792;17.626;2023-09-18T06:06:07;2.50;;;1.53;;
60612;SDS011;46443;59.792;17.626;2023-09-18T06:08:33;3.97;;;1.70;;
60612;SDS011;46443;59.792;17.626;2023-09-18T06:10:59;3.20;;;1.80;;
60612;SDS011;46443;59.792;17.626;2023-09-18T06:13:26;3.53;;;2.00;;
60612;SDS011;46443;59.792;17.626;2023-09-18T06:15:53;3.23;;;1.70;;
60612;SDS011;46443;59.792;17.626;2023-09-18T06:18:20;3.00;;;1.77;;
60612;SDS011;46443;59.792;17.626;2023-09-18T06:20:46;3.13;;;1.77;;
60612;SDS011;46443;59.792;17.626;2023-09-18T06:23:12;4.10;;;1.77;;
60612;SDS011;46443;59.792;17.626;2023-09-18T06:25:39;4.90;;;1.80;;
60612;SDS011;46443;59.792;17.626;2023-09-18T06:28:05;3.50;;;1.77;;
60612;SDS011;46443;59.792;17.626;2023-09-18T06:30:31;4.00;;;1.90;;
60612;SDS011;46443;59.792;17.626;2023-09-18T06:32:58;2.67;;;1.70;;
60612;SDS011;46443;59.792;17.626;2023-09-18T06:35:24;3.53;;;1.63;;
60612;SDS011;46443;59.792;17.626;2023-09-18T06:37:50;3.23;;;1.90;;
60612;SDS011;46443;59.792;17.626;2023-09-18T06:40:17;2.97;;;1.67;;
60612;SDS011;46443;59.792;17.626;2023-09-18T06:42:43;2.60;;;1.50;;
60612;SDS011;46443;59.792;17.626;2023-09-18T06:45:10;3.23;;;1.90;;
60612;SDS011;46443;59.792;17.626;2023-09-18T06:47:36;2.73;;;1.63;;
60612;SDS011;46443;59.792;17.626;2023-09-18T06:50:02;1.80;;;1.33;;
60612;SDS011;46443;59.792;17.626;2023-09-18T06:52:31;3.17;;;1.73;;
60612;SDS011;46443;59.792;17.626;2023-09-18T06:54:57;3.17;;;1.97;;
60612;SDS011;46443;59.792;17.626;2023-09-18T06:57:24;2.80;;;1.67;;
60612;SDS011;46443;59.792;17.626;2023-09-18T06:59:50;4.07;;;1.80;;
60612;SDS011;46443;59.792;17.626;2023-09-18T07:02:16;3.90;;;1.80;;
60612;SDS011;46443;59.792;17.626;2023-09-18T07:04:42;4.07;;;1.60;;
60612;SDS011;46443;59.792;17.626;2023-09-18T07:07:12;2.83;;;1.55;;
60612;SDS011;46443;59.792;17.626;2023-09-18T07:09:39;2.97;;;1.60;;
60612;SDS011;46443;59.792;17.626;2023-09-18T07:12:05;5.13;;;1.90;;
60612;SDS011;46443;59.792;17.626;2023-09-18T07:14:31;3.23;;;1.50;;
60612;SDS011;46443;59.792;17.626;2023-09-18T07:16:57;3.53;;;1.70;;
60612;SDS011;46443;59.792;17.626;2023-09-18T07:19:25;3.43;;;1.60;;
60612;SDS011;46443;59.792;17.626;2023-09-18T07:21:52;3.40;;;1.67;;
60612;SDS011;46443;59.792;17.626;2023-09-18T07:24:18;3.00;;;2.00;;
60612;SDS011;46443;59.792;17.626;2023-09-18T07:26:46;1.97;;;1.60;;
60612;SDS011;46443;59.792;17.626;2023-09-18T07:29:13;4.33;;;1.90;;
60612;SDS011;46443;59.792;17.626;2023-09-18T07:31:40;2.37;;;1.70;;
60612;SDS011;46443;59.792;17.626;2023-09-18T07:34:06;3.00;;;1.67;;
60612;SDS011;46443;59.792;17.626;2023-09-18T07:36:32;3.17;;;1.40;;
60612;SDS011;46443;59.792;17.626;2023-09-18T07:38:58;3.67;;;1.73;;
60612;SDS011;46443;59.792;17.626;2023-09-18T07:41:24;2.83;;;1.77;;
60612;SDS011;46443;59.792;17.626;2023-09-18T07:43:51;3.93;;;1.70;;
60612;SDS011;46443;59.792;17.626;2023-09-18T07:46:17;3.70;;;1.50;;
60612;SDS011;46443;59.792;17.626;2023-09-18T07:48:43;3.97;;;1.40;;
60612;SDS011;46443;59.792;17.626;2023-09-18T07:51:12;2.40;;;1.30;;
60612;SDS011;46443;59.792;17.626;2023-09-18T07:53:39;2.85;;;1.40;;
60612;SDS011;46443;59.792;17.626;2023-09-18T07:56:05;3.07;;;1.67;;
60612;SDS011;46443;59.792;17.626;2023-09-18T07:58:31;4.40;;;1.37;;
60612;SDS011;46443;59.792;17.626;2023-09-18T08:00:58;1.80;;;1.20;;
60612;SDS011;46443;59.792;17.626;2023-09-18T08:03:25;1.97;;;1.20;;
60612;SDS011;46443;59.792;17.626;2023-09-18T08:05:52;2.37;;;1.20;;
60612;SDS011;46443;59.792;17.626;2023-09-18T08:08:19;1.73;;;1.27;;
60612;SDS011;46443;59.792;17.626;2023-09-18T08:10:46;3.10;;;1.50;;
60612;SDS011;46443;59.792;17.626;2023-09-18T08:13:12;2.13;;;1.10;;
60612;SDS011;46443;59.792;17.626;2023-09-18T08:15:39;2.70;;;1.10;;
60612;SDS011;46443;59.792;17.626;2023-09-18T08:18:05;1.30;;;1.00;;
60612;SDS011;46443;59.792;17.626;2023-09-18T08:20:31;1.87;;;1.03;;
60612;SDS011;46443;59.792;17.626;2023-09-18T08:22:58;2.37;;;1.10;;
60612;SDS011;46443;59.792;17.626;2023-09-18T08:25:28;2.53;;;1.17;;
60612;SDS011;46443;59.792;17.626;2023-09-18T08:27:54;3.07;;;1.27;;
60612;SDS011;46443;59.792;17.626;2023-09-18T08:30:20;1.80;;;1.10;;
60612;SDS011;46443;59.792;17.626;2023-09-18T08:32:46;2.37;;;1.10;;
60612;SDS011;46443;59.792;17.626;2023-09-18T08:35:13;2.63;;;1.30;;
60612;SDS011;46443;59.792;17.626;2023-09-18T08:37:40;2.00;;;1.00;;
60612;SDS011;46443;59.792;17.626;2023-09-18T08:40:07;2.50;;;1.17;;
60612;SDS011;46443;59.792;17.626;2023-09-18T08:42:38;2.00;;;1.20;;
60612;SDS011;46443;59.792;17.626;2023-09-18T08:45:08;1.43;;;1.00;;
60612;SDS011;46443;59.792;17.626;2023-09-18T08:47:35;3.27;;;1.23;;
60612;SDS011;46443;59.792;17.626;2023-09-18T08:50:03;2.70;;;1.33;;
60612;SDS011;46443;59.792;17.626;2023-09-18T08:52:29;1.40;;;1.17;;
60612;SDS011;46443;59.792;17.626;2023-09-18T08:54:56;1.47;;;1.10;;
60612;SDS011;46443;59.792;17.626;2023-09-18T08:57:22;2.50;;;0.90;;
60612;SDS011;46443;59.792;17.626;2023-09-18T08:59:48;1.57;;;1.07;;
60612;SDS011;46443;59.792;17.626;2023-09-18T09:02:15;1.73;;;1.10;;
60612;SDS011;46443;59.792;17.626;2023-09-18T09:04:41;1.87;;;1.30;;
60612;SDS011;46443;59.792;17.626;2023-09-18T09:07:07;2.40;;;1.10;;
60612;SDS011;46443;59.792;17.626;2023-09-18T09:09:33;2.07;;;1.23;;
60612;SDS011;46443;59.792;17.626;2023-09-18T09:11:59;1.77;;;1.20;;
60612;SDS011;46443;59.792;17.626;2023-09-18T09:14:25;3.07;;;1.33;;
60612;SDS011;46443;59.792;17.626;2023-09-18T09:16:55;1.83;;;1.10;;
60612;SDS011;46443;59.792;17.626;2023-09-18T09:19:29;2.70;;;1.20;;
60612;SDS011;46443;59.792;17.626;2023-09-18T09:21:56;2.03;;;1.10;;
60612;SDS011;46443;59.792;17.626;2023-09-18T09:24:41;1.23;;;1.13;;
60612;SDS011;46443;59.792;17.626;2023-09-18T09:27:08;2.57;;;1.13;;
60612;SDS011;46443;59.792;17.626;2023-09-18T09:29:34;2.17;;;1.00;;
60612;SDS011;46443;59.792;17.626;2023-09-18T09:32:14;3.83;;;1.33;;
60612;SDS011;46443;59.792;17.626;2023-09-18T09:37:06;1.93;;;1.10;;
60612;SDS011;46443;59.792;17.626;2023-09-18T09:39:32;2.83;;;1.20;;
60612;SDS011;46443;59.792;17.626;2023-09-18T09:42:02;1.77;;;1.37;;
60612;SDS011;46443;59.792;17.626;2023-09-18T09:44:32;1.63;;;1.20;;
60612;SDS011;46443;59.792;17.626;2023-09-18T09:46:58;1.92;;;1.00;;
60612;SDS011;46443;59.792;17.626;2023-09-18T09:49:25;2.40;;;1.40;;
60612;SDS011;46443;59.792;17.626;2023-09-18T09:51:55;2.17;;;1.23;;
60612;SDS011;46443;59.792;17.626;2023-09-18T09:54:34;2.33;;;1.20;;
60612;SDS011;46443;59.792;17.626;2023-09-18T09:57:02;1.60;;;1.30;;
60612;SDS011;46443;59.792;17.626;2023-09-18T09:59:29;1.15;;;1.02;;
60612;SDS011;46443;59.792;17.626;2023-09-18T10:01:58;1.90;;;1.20;;
60612;SDS011;46443;59.792;17.626;2023-09-18T10:04:24;4.57;;;1.23;;
60612;SDS011;46443;59.792;17.626;2023-09-18T10:06:52;3.33;;;1.07;;
60612;SDS011;46443;59.792;17.626;2023-09-18T10:09:22;2.60;;;1.37;;
60612;SDS011;46443;59.792;17.626;2023-09-18T10:11:51;2.63;;;1.10;;
60612;SDS011;46443;59.792;17.626;2023-09-18T10:14:19;2.15;;;1.00;;
60612;SDS011;46443;59.792;17.626;2023-09-18T10:16:46;1.97;;;1.30;;
60612;SDS011;46443;59.792;17.626;2023-09-18T10:21:46;3.85;;;1.75;;
60612;SDS011;46443;59.792;17.626;2023-09-18T10:24:23;2.40;;;1.20;;
60612;SDS011;46443;59.792;17.626;2023-09-18T10:26:51;1.95;;;1.05;;
60612;SDS011;46443;59.792;17.626;2023-09-18T10:29:20;2.08;;;1.40;;
60612;SDS011;46443;59.792;17.626;2023-09-18T10:31:48;1.70;;;1.20;;
60612;SDS011;46443;59.792;17.626;2023-09-18T10:34:16;3.65;;;1.60;;
60612;SDS011;46443;59.792;17.626;2023-09-18T10:36:43;2.28;;;1.15;;
60612;SDS011;46443;59.792;17.626;2023-09-18T10:39:09;2.27;;;1.37;;
60612;SDS011;46443;59.792;17.626;2023-09-18T10:41:38;1.60;;;0.93;;
60612;SDS011;46443;59.792;17.626;2023-09-18T10:44:05;2.80;;;1.30;;
60612;SDS011;46443;59.792;17.626;2023-09-18T10:46:32;2.17;;;0.90;;
60612;SDS011;46443;59.792;17.626;2023-09-18T10:48:58;2.90;;;1.37;;
60612;SDS011;46443;59.792;17.626;2023-09-18T10:51:25;3.80;;;1.40;;
60612;SDS011;46443;59.792;17.626;2023-09-18T10:53:51;1.40;;;1.30;;
60612;SDS011;46443;59.792;17.626;2023-09-18T10:56:19;2.03;;;1.30;;
60612;SDS011;46443;59.792;17.626;2023-09-18T10:58:45;2.50;;;1.25;;
60612;SDS011;46443;59.792;17.626;2023-09-18T11:01:12;2.60;;;1.10;;
60612;SDS011;46443;59.792;17.626;2023-09-18T11:03:38;2.40;;;1.20;;
60612;SDS011;46443;59.792;17.626;2023-09-18T11:06:10;2.53;;;1.50;;
60612;SDS011;46443;59.792;17.626;2023-09-18T11:08:51;2.28;;;1.33;;
60612;SDS011;46443;59.792;17.626;2023-09-18T11:11:19;2.92;;;1.27;;
60612;SDS011;46443;59.792;17.626;2023-09-18T11:13:52;2.97;;;1.60;;
60612;SDS011;46443;59.792;17.626;2023-09-18T11:21:29;1.38;;;1.15;;
60612;SDS011;46443;59.792;17.626;2023-09-18T11:24:00;1.73;;;1.30;;
60612;SDS011;46443;59.792;17.626;2023-09-18T11:26:33;2.03;;;1.13;;
60612;SDS011;46443;59.792;17.626;2023-09-18T11:29:00;1.40;;;1.25;;
60612;SDS011;46443;59.792;17.626;2023-09-18T11:31:42;1.42;;;1.20;;
60612;SDS011;46443;59.792;17.626;2023-09-18T11:34:21;1.25;;;1.15;;
60612;SDS011;46443;59.792;17.626;2023-09-18T11:36:47;2.70;;;1.67;;
60612;SDS011;46443;59.792;17.626;2023-09-18T11:39:14;2.92;;;1.40;;
60612;SDS011;46443;59.792;17.626;2023-09-18T11:42:06;1.88;;;1.40;;
60612;SDS011;46443;59.792;17.626;2023-09-18T11:44:32;1.17;;;1.08;;
60612;SDS011;46443;59.792;17.626;2023-09-18T11:46:58;2.47;;;1.27;;
60612;SDS011;46443;59.792;17.626;2023-09-18T11:49:25;2.28;;;1.27;;
60612;SDS011;46443;59.792;17.626;2023-09-18T11:51:52;2.53;;;1.30;;
60612;SDS011;46443;59.792;17.626;2023-09-18T11:54:18;2.60;;;1.25;;
60612;SDS011;46443;59.792;17.626;2023-09-18T11:56:44;2.45;;;1.40;;
60612;SDS011;46443;59.792;17.626;2023-09-18T11:59:10;2.05;;;1.60;;
60612;SDS011;46443;59.792;17.626;2023-09-18T12:01:37;2.13;;;1.48;;
60612;SDS011;46443;59.792;17.626;2023-09-18T12:04:04;2.42;;;1.40;;
60612;SDS011;46443;59.792;17.626;2023-09-18T12:06:43;4.70;;;1.63;;
60612;SDS011;46443;59.792;17.626;2023-09-18T12:09:09;2.78;;;1.20;;
60612;SDS011;46443;59.792;17.626;2023-09-18T12:11:36;1.90;;;1.13;;
60612;SDS011;46443;59.792;17.626;2023-09-18T12:14:04;2.55;;;1.30;;
60612;SDS011;46443;59.792;17.626;2023-09-18T12:16:30;1.30;;;1.20;;
60612;SDS011;46443;59.792;17.626;2023-09-18T12:18:56;2.13;;;1.40;;
60612;SDS011;46443;59.792;17.626;2023-09-18T12:21:24;3.90;;;1.40;;
60612;SDS011;46443;59.792;17.626;2023-09-18T12:23:50;1.42;;;1.30;;
60612;SDS011;46443;59.792;17.626;2023-09-18T12:26:16;1.70;;;1.20;;
60612;SDS011;46443;59.792;17.626;2023-09-18T12:28:45;1.55;;;1.40;;
60612;SDS011;46443;59.792;17.626;2023-09-18T12:31:11;2.80;;;1.60;;
60612;SDS011;46443;59.792;17.626;2023-09-18T12:33:38;2.88;;;1.40;;
60612;SDS011;46443;59.792;17.626;2023-09-18T12:36:05;1.55;;;1.13;;
60612;SDS011;46443;59.792;17.626;2023-09-18T12:38:32;2.33;;;1.20;;
60612;SDS011;46443;59.792;17.626;2023-09-18T12:40:58;2.28;;;1.52;;
60612;SDS011;46443;59.792;17.626;2023-09-18T12:43:49;2.70;;;1.50;;
60612;SDS011;46443;59.792;17.626;2023-09-18T12:46:15;2.97;;;1.25;;
60612;SDS011;46443;59.792;17.626;2023-09-18T12:48:41;3.08;;;1.17;;
60612;SDS011;46443;59.792;17.626;2023-09-18T12:53:37;1.38;;;1.20;;
60612;SDS011;46443;59.792;17.626;2023-09-18T12:56:10;2.78;;;1.20;;
60612;SDS011;46443;59.792;17.626;2023-09-18T12:58:37;3.80;;;1.35;;
60612;SDS011;46443;59.792;17.626;2023-09-18T13:01:04;1.98;;;1.40;;
60612;SDS011;46443;59.792;17.626;2023-09-18T13:03:35;1.30;;;1.20;;
60612;SDS011;46443;59.792;17.626;2023-09-18T13:06:11;3.50;;;1.30;;
60612;SDS011;46443;59.792;17.626;2023-09-18T13:08:37;2.30;;;1.20;;
60612;SDS011;46443;59.792;17.626;2023-09-18T13:11:04;3.03;;;1.57;;
60612;SDS011;46443;59.792;17.626;2023-09-18T13:13:31;2.30;;;1.20;;
60612;SDS011;46443;59.792;17.626;2023-09-18T13:15:58;1.70;;;1.40;;
60612;SDS011;46443;59.792;17.626;2023-09-18T13:18:25;2.67;;;1.10;;
60612;SDS011;46443;59.792;17.626;2023-09-18T13:20:52;2.50;;;1.60;;
60612;SDS011;46443;59.792;17.626;2023-09-18T13:23:18;1.77;;;1.10;;
60612;SDS011;46443;59.792;17.626;2023-09-18T13:25:45;2.57;;;1.30;;
60612;SDS011;46443;59.792;17.626;2023-09-18T13:28:13;2.57;;;1.40;;
60612;SDS011;46443;59.792;17.626;2023-09-18T13:30:40;4.53;;;2.17;;
60612;SDS011;46443;59.792;17.626;2023-09-18T13:33:10;3.73;;;1.50;;
60612;SDS011;46443;59.792;17.626;2023-09-18T13:35:37;2.60;;;1.53;;
60612;SDS011;46443;59.792;17.626;2023-09-18T13:38:04;2.30;;;1.20;;
60612;SDS011;46443;59.792;17.626;2023-09-18T13:40:31;1.83;;;1.20;;
60612;SDS011;46443;59.792;17.626;2023-09-18T13:43:04;3.50;;;1.03;;
60612;SDS011;46443;59.792;17.626;2023-09-18T13:45:30;2.25;;;1.10;;
60612;SDS011;46443;59.792;17.626;2023-09-18T13:47:56;2.53;;;1.10;;
60612;SDS011;46443;59.792;17.626;2023-09-18T13:50:22;1.60;;;1.20;;
60612;SDS011;46443;59.792;17.626;2023-09-18T13:52:48;1.70;;;1.23;;
60612;SDS011;46443;59.792;17.626;2023-09-18T13:55:15;2.37;;;1.30;;
60612;SDS011;46443;59.792;17.626;2023-09-18T13:57:41;1.27;;;1.10;;
60612;SDS011;46443;59.792;17.626;2023-09-18T14:00:07;1.33;;;1.00;;
60612;SDS011;46443;59.792;17.626;2023-09-18T14:02:36;3.00;;;1.13;;
60612;SDS011;46443;59.792;17.626;2023-09-18T14:05:02;1.67;;;1.10;;
60612;SDS011;46443;59.792;17.626;2023-09-18T14:07:28;2.17;;;1.20;;
60612;SDS011;46443;59.792;17.626;2023-09-18T14:09:55;0.87;;;0.83;;
60612;SDS011;46443;59.792;17.626;2023-09-18T14:12:22;2.20;;;1.40;;
60612;SDS011;46443;59.792;17.626;2023-09-18T14:14:48;2.27;;;1.20;;
60612;SDS011;46443;59.792;17.626;2023-09-18T14:17:14;1.17;;;0.97;;
60612;SDS011;46443;59.792;17.626;2023-09-18T14:19:42;2.27;;;1.20;;
60612;SDS011;46443;59.792;17.626;2023-09-18T14:22:09;3.17;;;1.33;;
60612;SDS011;46443;59.792;17.626;2023-09-18T14:24:35;1.93;;;1.20;;
60612;SDS011;46443;59.792;17.626;2023-09-18T14:27:02;1.77;;;1.40;;
60612;SDS011;46443;59.792;17.626;2023-09-18T14:29:28;2.50;;;1.30;;
60612;SDS011;46443;59.792;17.626;2023-09-18T14:31:55;1.33;;;1.20;;
60612;SDS011;46443;59.792;17.626;2023-09-18T14:34:21;2.83;;;1.20;;
60612;SDS011;46443;59.792;17.626;2023-09-18T14:36:47;1.30;;;1.03;;
60612;SDS011;46443;59.792;17.626;2023-09-18T14:39:13;3.67;;;1.23;;
60612;SDS011;46443;59.792;17.626;2023-09-18T14:41:40;2.10;;;1.10;;
60612;SDS011;46443;59.792;17.626;2023-09-18T14:44:09;2.13;;;1.10;;
60612;SDS011;46443;59.792;17.626;2023-09-18T14:49:05;1.60;;;1.00;;
60612;SDS011;46443;59.792;17.626;2023-09-18T14:51:32;1.20;;;1.10;;
60612;SDS011;46443;59.792;17.626;2023-09-18T14:53:58;3.13;;;1.27;;